Time;durP1;ratioP1;P1;durP2;ratioP2;P2;SDS_P1;SDS_P2;PMS_P1;PMS_P2;Temp;Humidity;BMP_temperature;BMP_pressure;BME280_temperature;BME280_humidity;BME280_pressure;Samples;Min_cycle;Max_cycle;Signal;HPM_P1;HPM_P2
2022/05/26 00:02:07;;;;;;;2.47;0.53;;;;;;;15.28;56.24;99153.56;4973247;28;20213;-51
2022/05/26 00:04:35;;;;;;;1.97;0.40;;;;;;;15.18;57.24;99157.19;4973227;28;20193;-51
2022/05/26 00:07:03;;;;;;;2.50;0.70;;;;;;;15.21;57.55;99163.94;4955242;28;20198;-51
2022/05/26 00:09:30;;;;;;;1.23;0.40;;;;;;;15.20;56.42;99157.84;4972618;28;20640;-51
2022/05/26 00:11:58;;;;;;;2.33;0.60;;;;;;;15.13;57.14;99161.34;4973001;28;20228;-51
2022/05/26 00:14:25;;;;;;;0.97;0.30;;;;;;;15.03;58.38;99164.97;4972841;28;20186;-48
2022/05/26 00:16:53;;;;;;;2.17;0.60;;;;;;;14.99;58.24;99166.28;4972711;28;20189;-48
2022/05/26 00:19:21;;;;;;;4.27;0.50;;;;;;;14.90;58.23;99162.81;4972687;28;20209;-48
2022/05/26 00:21:50;;;;;;;1.40;0.50;;;;;;;14.90;57.73;99162.81;4972990;28;20231;-48
2022/05/26 00:24:18;;;;;;;1.00;0.33;;;;;;;14.90;58.66;99160.19;4972944;28;20186;-48
2022/05/26 00:26:46;;;;;;;2.77;0.50;;;;;;;14.90;58.57;99167.28;4973029;28;20220;-48
2022/05/26 00:29:14;;;;;;;2.33;0.50;;;;;;;14.96;58.28;99161.34;4955301;28;20215;-48
2022/05/26 00:31:41;;;;;;;1.77;0.50;;;;;;;14.93;58.32;99168.72;4973732;28;20197;-48
2022/05/26 00:34:09;;;;;;;1.00;0.40;;;;;;;15.03;58.40;99170.22;4970193;28;20667;-48
2022/05/26 00:36:41;;;;;;;1.97;0.80;;;;;;;15.12;58.49;99163.13;4961017;28;20209;-48
2022/05/26 00:39:12;;;;;;;1.33;0.50;;;;;;;15.29;58.41;99166.56;4966256;28;20226;-48
2022/05/26 00:41:43;;;;;;;0.67;0.43;;;;;;;15.34;57.08;99174.78;4971118;28;20232;-48
2022/05/26 00:44:11;;;;;;;4.53;0.60;;;;;;;15.34;58.77;99173.94;4975692;28;20597;-48
2022/05/26 00:46:45;;;;;;;1.90;0.40;;;;;;;15.36;57.61;99166.69;4975359;28;20187;-48
2022/05/26 00:49:21;;;;;;;2.50;0.60;;;;;;;15.44;57.24;99171.94;4975039;28;20214;-48
2022/05/26 00:51:48;;;;;;;1.33;0.50;;;;;;;15.43;57.49;99175.56;4975329;28;20216;-48
2022/05/26 00:54:21;;;;;;;2.77;0.70;;;;;;;15.41;58.25;99179.31;4967705;28;20217;-48
2022/05/26 00:56:52;;;;;;;1.47;0.60;;;;;;;15.40;57.38;99167.16;4975308;28;20194;-49
2022/05/26 00:59:24;;;;;;;0.77;0.40;;;;;;;15.46;56.84;99172.59;4975074;28;20379;-48
2022/05/26 01:01:52;;;;;;;2.57;0.60;;;;;;;15.48;56.63;99177.66;4959092;28;20235;-48
2022/05/26 01:04:23;;;;;;;0.97;0.40;;;;;;;15.47;57.47;99173.41;4968742;28;20551;-48
2022/05/26 01:06:56;;;;;;;1.73;0.60;;;;;;;15.46;57.55;99177.84;4959794;28;20245;-48
2022/05/26 01:09:25;;;;;;;0.63;0.40;;;;;;;15.48;57.19;99175.88;4975791;28;20199;-48
2022/05/26 01:11:53;;;;;;;2.97;0.50;;;;;;;15.50;55.78;99168.63;4975906;28;20318;-48
2022/05/26 01:14:29;;;;;;;1.47;0.30;;;;;;;15.54;56.84;99169.09;4976057;28;20205;-48
2022/05/26 01:17:13;;;;;;;2.77;0.50;;;;;;;15.57;55.72;99162.69;4975528;28;20189;-48
2022/05/26 01:20:17;;;;;;;1.80;0.30;;;;;;;15.57;56.90;99170.59;4975956;28;20198;-48
2022/05/26 01:23:30;;;;;;;1.13;0.40;;;;;;;15.54;57.69;99170.94;4971772;28;20206;-48
2022/05/26 01:26:45;;;;;;;2.08;0.50;;;;;;;15.53;56.16;99166.66;4920038;29;20534;-49
2022/05/26 01:29:43;;;;;;;4.90;0.40;;;;;;;15.59;55.52;99160.72;4947578;29;20238;-49
2022/05/26 01:32:20;;;;;;;2.57;0.33;;;;;;;15.61;57.28;99161.38;4956249;29;20199;-48
2022/05/26 01:35:12;;;;;;;2.93;0.40;;;;;;;15.60;56.30;99160.53;4956574;29;20575;-48
2022/05/26 01:37:51;;;;;;;3.00;0.50;;;;;;;15.58;56.15;99162.50;4955610;28;20242;-51
2022/05/26 01:40:29;;;;;;;3.43;0.50;;;;;;;15.57;56.11;99173.22;4956207;29;20654;-51
2022/05/26 01:43:07;;;;;;;1.57;0.33;;;;;;;15.57;55.57;99175.84;4955949;29;20743;-50
2022/05/26 01:45:44;;;;;;;1.10;0.40;;;;;;;15.62;54.72;99170.91;4968769;28;20309;-51
2022/05/26 01:48:18;;;;;;;2.37;0.40;;;;;;;15.70;54.50;99175.28;4979458;28;20589;-51
2022/05/26 01:50:52;;;;;;;2.20;0.47;;;;;;;15.65;54.91;99167.94;4970943;28;20191;-48
2022/05/26 01:53:29;;;;;;;1.63;0.50;;;;;;;15.70;54.72;99168.25;4967338;28;20197;-48
2022/05/26 01:56:02;;;;;;;3.13;0.40;;;;;;;15.74;56.37;99172.16;4973391;28;20201;-49
2022/05/26 01:58:34;;;;;;;2.00;0.70;;;;;;;15.76;55.09;99171.97;4968563;28;20245;-49
2022/05/26 02:01:04;;;;;;;2.80;0.60;;;;;;;15.72;54.91;99175.94;4973689;28;20203;-49
2022/05/26 02:03:35;;;;;;;3.50;0.40;;;;;;;15.72;54.63;99175.94;4974219;28;20610;-49
2022/05/26 02:06:11;;;;;;;1.30;0.67;;;;;;;15.74;53.87;99179.22;4974813;28;20198;-49
2022/05/26 02:08:44;;;;;;;1.37;0.33;;;;;;;15.70;54.12;99172.66;4974347;28;20284;-49
2022/05/26 02:11:14;;;;;;;2.50;0.50;;;;;;;15.69;55.41;99177.13;4961987;28;20257;-49
2022/05/26 02:13:44;;;;;;;2.67;0.67;;;;;;;15.71;54.42;99179.56;4969815;28;20202;-48
2022/05/26 02:16:16;;;;;;;2.47;0.50;;;;;;;15.65;54.21;99170.56;4966993;28;20208;-48
2022/05/26 02:18:54;;;;;;;0.83;0.50;;;;;;;15.61;54.51;99177.16;4958951;28;20293;-49
2022/05/26 02:21:30;;;;;;;1.43;0.40;;;;;;;15.63;54.03;99178.59;4965582;28;20238;-49
2022/05/26 02:24:03;;;;;;;1.23;0.43;;;;;;;15.67;54.58;99175.63;4974535;28;20217;-49
2022/05/26 02:26:32;;;;;;;5.40;0.73;;;;;;;15.65;55.12;99181.09;4974491;28;20597;-49
2022/05/26 02:31:45;;;;;;;3.00;0.50;;;;;;;15.50;56.10;99175.69;4970623;28;20182;-49
2022/05/26 02:34:14;;;;;;;1.37;0.40;;;;;;;15.42;55.94;99171.28;4966643;28;20530;-49
2022/05/26 02:36:42;;;;;;;2.20;0.53;;;;;;;15.36;55.93;99174.59;4941907;29;20670;-49
2022/05/26 02:39:10;;;;;;;1.53;0.37;;;;;;;15.35;55.35;99176.41;4974001;28;20247;-49
2022/05/26 02:41:40;;;;;;;1.13;0.40;;;;;;;15.30;55.78;99180.53;4974550;28;20191;-49
2022/05/26 02:44:09;;;;;;;0.93;0.50;;;;;;;15.29;56.71;99189.41;4974616;28;20372;-48
2022/05/26 02:46:50;;;;;;;0.70;0.47;;;;;;;15.33;56.73;99174.91;4957041;28;20204;-49
2022/05/26 02:49:31;;;;;;;0.97;0.50;;;;;;;15.18;57.46;99180.06;4974253;28;20217;-49
2022/05/26 02:52:04;;;;;;;0.60;0.40;;;;;;;15.10;57.87;99180.88;4973740;28;20180;-49
2022/05/26 02:54:54;;;;;;;5.47;0.50;;;;;;;15.17;56.81;99179.22;4973747;28;20242;-49
2022/05/26 02:57:26;;;;;;;2.87;1.20;;;;;;;15.05;56.85;99186.66;4973477;28;20202;-49
2022/05/26 03:00:01;;;;;;;2.23;0.60;;;;;;;15.13;56.84;99180.53;4973727;28;20580;-49
2022/05/26 03:02:35;;;;;;;1.73;0.60;;;;;;;15.04;57.18;99186.81;4974119;28;20212;-49
2022/05/26 03:05:08;;;;;;;4.57;0.60;;;;;;;15.05;56.64;99178.75;4974247;28;20228;-49
2022/05/26 03:07:40;;;;;;;0.83;0.50;;;;;;;15.01;56.82;99176.63;4973888;28;20227;-48
2022/05/26 03:10:29;;;;;;;1.30;0.40;;;;;;;14.93;56.79;99184.50;4974333;28;20214;-49
2022/05/26 03:12:59;;;;;;;1.77;0.50;;;;;;;14.85;56.83;99180.09;4974170;28;20185;-49
2022/05/26 03:15:27;;;;;;;2.00;0.50;;;;;;;14.78;57.76;99186.97;4974182;28;20268;-49
2022/05/26 03:17:55;;;;;;;3.33;0.30;;;;;;;14.79;57.70;99192.09;4973519;28;20213;-49
2022/05/26 03:20:23;;;;;;;1.23;0.50;;;;;;;14.66;58.28;99195.16;4973728;28;20645;-49
2022/05/26 03:22:51;;;;;;;5.57;1.33;;;;;;;14.60;58.35;99198.44;4973750;28;20735;-49
2022/05/26 03:25:18;;;;;;;1.20;0.57;;;;;;;14.67;59.05;99196.78;4974039;28;20222;-49
2022/05/26 03:27:46;;;;;;;3.40;0.50;;;;;;;14.47;59.04;99199.72;4955778;28;20218;-49
2022/05/26 03:30:13;;;;;;;2.57;0.57;;;;;;;14.39;59.72;99201.53;4973628;28;20192;-49
2022/05/26 03:32:41;;;;;;;1.70;0.60;;;;;;;14.26;59.79;99204.63;4974269;28;20210;-49
2022/05/26 03:40:47;;;;;;;2.57;0.63;;;;;;;14.03;61.94;99205.22;4973631;28;20232;-49
2022/05/26 03:43:15;;;;;;;1.17;0.63;;;;;;;13.89;62.37;99206.63;4973390;28;20727;-49
2022/05/26 03:45:44;;;;;;;1.97;0.50;;;;;;;13.78;62.64;99206.94;4973514;28;20190;-49
2022/05/26 03:48:11;;;;;;;2.47;0.90;;;;;;;13.73;63.56;99210.00;4973227;28;20220;-49
2022/05/26 03:50:38;;;;;;;2.30;0.50;;;;;;;13.72;62.92;99211.81;4973367;28;20196;-50
2022/05/26 03:53:07;;;;;;;2.10;0.70;;;;;;;13.67;63.31;99211.47;4973447;28;20217;-49
2022/05/26 03:55:35;;;;;;;0.57;0.43;;;;;;;13.64;63.85;99214.41;4973176;28;20667;-49
2022/05/26 03:58:03;;;;;;;3.60;0.80;;;;;;;13.69;63.41;99212.13;4973022;28;20232;-49
2022/05/26 04:00:31;;;;;;;2.93;0.70;;;;;;;13.84;63.27;99207.13;4973497;28;20537;-49
2022/05/26 04:02:59;;;;;;;1.93;0.70;;;;;;;13.84;62.71;99214.16;4973169;28;20204;-49
2022/05/26 04:05:29;;;;;;;2.10;0.70;;;;;;;13.80;62.94;99211.03;4973248;28;20259;-49
2022/05/26 04:07:55;;;;;;;3.43;0.60;;;;;;;13.85;63.35;99214.00;4973223;28;20559;-49
2022/05/26 04:10:24;;;;;;;1.03;0.50;;;;;;;13.87;63.59;99224.34;4978445;28;20225;-49
2022/05/26 04:12:51;;;;;;;2.97;0.50;;;;;;;13.91;63.69;99222.22;4979505;28;20212;-49
2022/05/26 04:15:19;;;;;;;1.80;0.80;;;;;;;13.98;63.26;99225.88;4981388;28;20576;-48
2022/05/26 04:17:47;;;;;;;2.90;0.60;;;;;;;14.08;63.55;99225.72;4979245;28;20221;-48
2022/05/26 04:20:18;;;;;;;1.10;0.63;;;;;;;14.16;62.91;99234.47;4971544;28;20197;-48
2022/05/26 04:22:45;;;;;;;1.67;0.70;;;;;;;14.29;62.20;99236.63;4971607;28;20217;-49
2022/05/26 04:25:14;;;;;;;4.50;0.60;;;;;;;14.39;62.45;99230.41;4971502;28;20812;-49
2022/05/26 04:27:42;;;;;;;2.87;0.70;;;;;;;14.51;62.15;99234.41;4971314;28;20232;-49
2022/05/26 04:30:12;;;;;;;3.57;0.73;;;;;;;14.60;61.38;99238.69;4961759;28;20251;-49
2022/05/26 04:32:40;;;;;;;2.87;0.70;;;;;;;14.69;61.37;99244.78;4964361;28;20217;-49
2022/05/26 04:35:09;;;;;;;3.17;0.47;;;;;;;14.78;60.55;99242.16;4970506;28;20228;-49
2022/05/26 04:37:37;;;;;;;0.83;0.60;;;;;;;14.80;60.30;99238.41;4979154;28;20708;-49
2022/05/26 04:40:06;;;;;;;2.00;0.70;;;;;;;14.86;60.83;99240.34;4979288;28;20193;-49
2022/05/26 04:42:33;;;;;;;1.70;0.70;;;;;;;14.91;60.17;99240.69;4979203;28;20336;-49
2022/05/26 04:47:48;;;;;;;2.53;0.60;;;;;;;15.00;59.94;99243.31;4961461;28;20211;-49
2022/05/26 04:50:14;;;;;;;4.10;0.70;;;;;;;15.07;59.23;99241.69;4979279;28;20651;-49
2022/05/26 04:52:42;;;;;;;1.90;0.70;;;;;;;15.09;59.92;99229.19;4979330;28;20208;-49
2022/05/26 04:55:10;;;;;;;3.23;0.57;;;;;;;15.15;58.87;99233.78;4979012;28;20190;-49
2022/05/26 04:57:37;;;;;;;1.50;0.60;;;;;;;15.16;59.30;99243.31;4961293;28;20685;-49
2022/05/26 05:00:10;;;;;;;3.90;0.60;;;;;;;15.22;59.50;99248.91;4979303;28;20192;-49
2022/05/26 05:02:38;;;;;;;1.50;0.80;;;;;;;15.27;59.25;99250.06;4979400;28;20197;-49
2022/05/26 05:05:06;;;;;;;2.03;0.70;;;;;;;15.31;58.86;99251.38;4978984;28;20641;-49
2022/05/26 05:07:34;;;;;;;0.63;0.40;;;;;;;15.40;58.22;99251.34;4978863;28;20681;-49
2022/05/26 05:10:01;;;;;;;1.73;0.40;;;;;;;15.42;58.37;99252.84;4979107;28;20251;-50
2022/05/26 05:12:28;;;;;;;1.50;0.60;;;;;;;15.51;57.69;99261.53;4979108;28;20198;-49
2022/05/26 05:14:57;;;;;;;3.23;0.50;;;;;;;15.60;57.54;99262.34;4979362;28;20187;-49
2022/05/26 05:17:27;;;;;;;1.97;0.50;;;;;;;15.71;57.93;99263.78;4978845;28;20216;-49
2022/05/26 05:19:54;;;;;;;4.53;0.67;;;;;;;15.79;57.19;99264.59;4979294;28;20197;-50
2022/05/26 05:22:26;;;;;;;1.33;0.50;;;;;;;15.79;56.30;99275.13;4975302;28;20189;-51
2022/05/26 05:24:58;;;;;;;1.57;0.87;;;;;;;15.77;57.21;99268.38;4958451;28;20227;-50
2022/05/26 05:27:31;;;;;;;3.37;0.50;;;;;;;15.76;56.33;99275.47;4975790;28;20223;-50
2022/05/26 05:30:23;;;;;;;3.70;0.63;;;;;;;15.76;56.04;99287.78;4975908;28;20665;-49
2022/05/26 05:32:55;;;;;;;3.57;0.70;;;;;;;15.73;56.76;99280.22;4976286;28;20272;-49
2022/05/26 05:35:29;;;;;;;3.57;0.67;;;;;;;15.78;56.98;99285.81;4976060;28;20188;-49
2022/05/26 05:37:57;;;;;;;3.17;0.70;;;;;;;15.90;56.70;99286.31;4976077;28;20301;-49
2022/05/26 05:40:25;;;;;;;1.33;0.60;;;;;;;15.99;55.96;99285.28;4976156;28;20265;-49
2022/05/26 05:42:53;;;;;;;2.07;0.60;;;;;;;16.08;56.19;99292.16;4975617;28;20186;-49
2022/05/26 05:45:20;;;;;;;1.57;0.60;;;;;;;16.09;55.80;99293.81;4975731;28;20706;-49
2022/05/26 05:47:48;;;;;;;0.63;0.43;;;;;;;16.19;55.20;99287.53;4957798;28;20551;-49
2022/05/26 05:50:16;;;;;;;1.40;0.60;;;;;;;16.36;55.33;99294.38;4975176;28;20192;-49
2022/05/26 05:52:44;;;;;;;4.10;0.80;;;;;;;16.34;54.79;99293.72;4975225;28;20543;-49
2022/05/26 05:55:11;;;;;;;1.53;0.50;;;;;;;16.48;55.25;99294.78;4975192;28;20701;-49
2022/05/26 05:57:38;;;;;;;1.77;0.60;;;;;;;16.55;54.69;99297.56;4974810;28;20265;-49
2022/05/26 06:00:08;;;;;;;1.93;0.50;;;;;;;16.54;54.28;99306.47;4975199;28;20193;-49
2022/05/26 06:02:35;;;;;;;2.63;0.67;;;;;;;16.59;53.72;99312.03;4957767;28;20678;-52
2022/05/26 06:05:03;;;;;;;2.23;0.50;;;;;;;16.52;54.45;99308.44;4975516;28;20659;-51
2022/05/26 06:07:32;;;;;;;2.07;0.50;;;;;;;16.53;55.45;99310.91;4975584;28;20215;-49
2022/05/26 06:09:59;;;;;;;2.53;0.70;;;;;;;16.48;55.60;99315.88;4975371;28;20210;-49
2022/05/26 06:12:27;;;;;;;2.20;0.80;;;;;;;16.48;54.69;99307.16;4975398;28;20274;-50
2022/05/26 06:14:54;;;;;;;3.00;0.60;;;;;;;16.30;55.21;99312.69;4975001;28;20198;-51
2022/05/26 06:17:21;;;;;;;5.10;0.53;;;;;;;16.34;55.55;99320.06;4974568;28;20203;-49
2022/05/26 06:19:49;;;;;;;2.17;0.60;;;;;;;16.51;55.59;99322.63;4974755;28;20205;-51
2022/05/26 06:22:18;;;;;;;3.03;0.60;;;;;;;16.53;53.23;99318.81;4974709;28;20190;-51
2022/05/26 06:24:48;;;;;;;6.80;0.63;;;;;;;16.57;54.85;99321.94;4974576;28;20206;-48
2022/05/26 06:30:00;;;;;;;1.03;0.50;;;;;;;16.80;54.07;99329.06;4922459;28;20563;-48
2022/05/26 06:38:00;;;;;;;1.70;0.60;;;;;;;17.04;51.96;99338.66;4974225;28;20218;-49
2022/05/26 06:40:31;;;;;;;1.77;0.70;;;;;;;16.94;53.27;99344.16;4957133;28;20198;-49
2022/05/26 06:42:59;;;;;;;3.17;0.60;;;;;;;17.08;53.31;99350.50;4957081;28;20254;-49
2022/05/26 06:45:27;;;;;;;1.60;0.50;;;;;;;17.32;52.63;99350.50;4979673;28;20302;-49
2022/05/26 06:47:54;;;;;;;0.83;0.60;;;;;;;17.62;52.03;99351.38;4976628;28;20315;-49
2022/05/26 06:50:22;;;;;;;2.33;0.60;;;;;;;17.80;53.49;99353.72;4973863;28;20195;-49
2022/05/26 06:52:49;;;;;;;2.57;0.60;;;;;;;17.76;51.40;99356.88;4973154;28;20206;-49
2022/05/26 06:55:16;;;;;;;3.83;0.70;;;;;;;17.93;51.00;99354.91;4972084;28;20352;-49
2022/05/26 06:57:44;;;;;;;1.93;0.63;;;;;;;18.23;51.27;99360.22;4973113;28;20216;-50
2022/05/26 07:00:14;;;;;;;1.60;0.63;;;;;;;18.40;50.73;99361.66;4973718;28;20638;-50
2022/05/26 07:02:42;;;;;;;3.03;0.70;;;;;;;18.50;52.29;99368.50;4956546;28;20727;-50
2022/05/26 07:05:11;;;;;;;3.43;0.67;;;;;;;18.76;50.13;99368.00;4974118;28;20216;-50
2022/05/26 07:07:38;;;;;;;2.97;0.70;;;;;;;18.72;48.19;99366.72;4973897;28;20248;-49
2022/05/26 07:10:25;;;;;;;3.00;0.70;;;;;;;18.50;49.32;99373.78;4973808;28;20276;-50
2022/05/26 07:12:54;;;;;;;1.53;0.60;;;;;;;18.72;49.74;99372.84;4973903;28;20182;-50
2022/05/26 07:15:21;;;;;;;0.87;0.57;;;;;;;18.79;48.50;99366.81;4973914;28;20201;-50
2022/05/26 07:17:48;;;;;;;3.07;0.70;;;;;;;18.61;50.08;99375.97;4973428;28;20212;-50
2022/05/26 07:20:14;;;;;;;1.50;0.60;;;;;;;18.57;50.08;99372.03;4973731;28;20189;-49
2022/05/26 07:22:42;;;;;;;2.03;0.70;;;;;;;18.54;51.25;99383.81;4973857;28;20641;-50
2022/05/26 07:25:10;;;;;;;1.63;0.63;;;;;;;18.58;50.63;99384.25;4973133;28;20452;-49
2022/05/26 07:27:38;;;;;;;4.17;0.80;;;;;;;18.58;51.09;99390.34;4973193;28;20209;-50
2022/05/26 07:30:07;;;;;;;0.90;0.60;;;;;;;18.64;50.75;99393.25;4973862;28;20186;-49
2022/05/26 07:32:34;;;;;;;3.50;0.80;;;;;;;18.55;50.44;99393.38;4973985;28;20198;-49
2022/05/26 07:35:01;;;;;;;1.67;0.90;;;;;;;18.80;50.29;99400.19;4973875;28;20175;-49
2022/05/26 07:42:58;;;;;;;4.40;0.70;;;;;;;18.62;52.83;99406.69;4969578;28;20699;-48
2022/05/26 07:45:27;;;;;;;2.73;0.73;;;;;;;18.80;52.96;99405.47;4962392;28;20216;-48
2022/05/26 07:47:54;;;;;;;3.40;0.50;;;;;;;18.85;52.46;99411.03;4963878;28;20204;-48
2022/05/26 07:50:22;;;;;;;2.50;0.93;;;;;;;18.85;53.54;99413.69;4963137;28;20654;-49
2022/05/26 07:52:49;;;;;;;4.40;0.80;;;;;;;18.80;51.58;99414.22;4962579;28;20199;-49
2022/05/26 07:55:18;;;;;;;1.40;0.70;;;;;;;18.56;52.45;99415.34;4962629;28;20189;-49
2022/05/26 07:57:46;;;;;;;3.30;0.70;;;;;;;18.88;50.98;99403.53;4962948;28;20221;-49
2022/05/26 08:00:16;;;;;;;6.00;1.30;;;;;;;18.68;50.91;99408.59;4964520;28;20589;-49
2022/05/26 08:02:44;;;;;;;4.77;0.90;;;;;;;18.61;50.68;99418.25;4963656;28;20507;-49
2022/05/26 08:05:13;;;;;;;3.60;0.80;;;;;;;18.50;53.09;99410.78;4945087;28;20216;-49
2022/05/26 08:07:41;;;;;;;3.50;0.80;;;;;;;18.78;52.26;99413.59;4963477;28;20249;-49
2022/05/26 08:10:10;;;;;;;2.60;0.93;;;;;;;18.72;52.26;99414.31;4964121;28;20729;-49
2022/05/26 08:12:37;;;;;;;7.20;1.07;;;;;;;18.69;52.19;99409.41;4961912;28;20192;-49
2022/05/26 08:15:05;;;;;;;3.27;0.80;;;;;;;18.98;50.89;99416.50;4963497;28;20272;-49
2022/05/26 08:17:32;;;;;;;4.43;0.90;;;;;;;18.89;52.01;99421.03;4944619;28;20786;-49
2022/05/26 08:20:00;;;;;;;2.37;0.90;;;;;;;19.24;51.22;99416.97;4962844;28;20211;-49
2022/05/26 08:22:28;;;;;;;2.80;0.90;;;;;;;19.30;50.65;99422.31;4962783;28;20208;-48
2022/05/26 08:24:56;;;;;;;4.13;1.20;;;;;;;19.37;50.96;99422.41;4964319;28;20462;-48
2022/05/26 08:27:25;;;;;;;2.90;0.90;;;;;;;19.50;49.45;99434.13;4962985;28;20212;-48
2022/05/26 08:29:54;;;;;;;2.80;0.90;;;;;;;19.17;50.87;99423.03;4962183;28;20208;-48
2022/05/26 08:32:22;;;;;;;1.77;1.00;;;;;;;19.10;50.68;99427.41;4963422;28;20270;-49
2022/05/26 08:34:50;;;;;;;3.10;0.80;;;;;;;18.66;53.01;99423.81;4963881;28;20650;-49
2022/05/26 08:37:21;;;;;;;1.40;0.90;;;;;;;19.16;51.03;99433.78;4943894;28;20221;-49
2022/05/26 08:39:48;;;;;;;2.10;0.90;;;;;;;19.20;52.92;99431.59;4946031;28;20202;-49
2022/05/26 08:42:22;;;;;;;2.50;0.80;;;;;;;19.53;50.73;99431.91;4961869;28;20200;-49
2022/05/26 08:44:50;;;;;;;1.57;0.90;;;;;;;19.74;51.32;99441.66;4944973;28;20640;-48
2022/05/26 08:47:20;;;;;;;2.40;0.93;;;;;;;19.59;51.32;99436.47;4961890;28;20197;-47
2022/05/26 08:49:51;;;;;;;3.03;1.10;;;;;;;19.69;49.83;99449.38;4960033;28;20190;-49
2022/05/26 08:52:26;;;;;;;3.47;0.90;;;;;;;19.25;50.54;99445.88;4954725;28;20199;-48
2022/05/26 08:55:01;;;;;;;4.77;1.07;;;;;;;19.00;51.30;99448.91;4973185;28;20200;-49
2022/05/26 08:57:32;;;;;;;4.90;1.13;;;;;;;18.73;52.55;99448.53;4975939;28;20224;-49
2022/05/26 08:59:59;;;;;;;1.40;0.80;;;;;;;18.82;52.21;99443.94;4976393;28;20203;-49
2022/05/26 09:02:29;;;;;;;2.73;1.03;;;;;;;18.91;52.21;99447.31;4971506;28;20201;-47
2022/05/26 09:04:59;;;;;;;1.00;0.70;;;;;;;19.15;52.62;99458.59;4973761;28;20200;-47
2022/05/26 09:13:08;;;;;;;2.10;0.80;;;;;;;20.00;49.61;99445.56;4973769;28;20200;-48
2022/05/26 09:15:37;;;;;;;3.23;0.70;;;;;;;20.19;49.17;99452.03;4956826;28;20200;-48
2022/05/26 09:18:15;;;;;;;2.90;1.13;;;;;;;20.66;47.38;99451.50;4939005;28;20314;-50
2022/05/26 09:20:44;;;;;;;1.60;0.90;;;;;;;20.62;48.64;99452.91;4956761;28;20239;-49
2022/05/26 09:23:21;;;;;;;3.73;0.70;;;;;;;20.81;47.85;99455.88;4956787;28;20193;-50
2022/05/26 09:26:08;;;;;;;3.33;1.03;;;;;;;20.72;48.08;99468.44;4957044;28;20276;-50
2022/05/26 09:28:43;;;;;;;3.03;0.77;;;;;;;20.12;48.88;99460.97;4939166;29;20224;-47
2022/05/26 09:31:19;;;;;;;2.97;1.00;;;;;;;19.59;50.25;99462.13;4956368;28;20194;-49
2022/05/26 09:34:04;;;;;;;1.57;0.70;;;;;;;19.50;50.93;99468.56;4956734;28;20274;-50
2022/05/26 09:36:37;;;;;;;3.70;0.93;;;;;;;19.46;49.84;99462.81;4969102;28;20189;-49
2022/05/26 09:39:07;;;;;;;5.33;1.10;;;;;;;19.21;51.33;99462.34;4976662;28;20213;-49
2022/05/26 09:41:42;;;;;;;2.67;1.00;;;;;;;18.85;52.26;99456.00;4958258;28;20197;-49
2022/05/26 09:44:24;;;;;;;5.83;0.90;;;;;;;19.26;52.85;99462.59;4957862;28;20656;-49
2022/05/26 09:46:55;;;;;;;7.40;1.10;;;;;;;19.72;51.33;99458.78;4975081;28;20204;-49
2022/05/26 09:49:26;;;;;;;1.17;0.70;;;;;;;20.16;50.01;99463.00;4971815;28;20217;-49
2022/05/26 09:52:07;;;;;;;5.10;1.00;;;;;;;20.55;48.76;99474.09;4970581;28;20267;-50
2022/05/26 09:54:36;;;;;;;2.50;0.80;;;;;;;20.68;47.01;99470.69;4975353;28;20241;-50
2022/05/26 09:57:18;;;;;;;3.27;0.90;;;;;;;20.75;46.84;99476.84;4975280;28;20208;-49
2022/05/26 09:59:46;;;;;;;3.67;0.70;;;;;;;21.13;47.34;99480.09;4979869;28;20201;-49
2022/05/26 10:02:23;;;;;;;4.87;1.00;;;;;;;21.20;47.68;99472.97;4979944;28;20206;-49
2022/05/26 10:04:58;;;;;;;5.87;0.87;;;;;;;21.00;47.30;99483.50;4975121;28;20259;-49
2022/05/26 10:07:48;;;;;;;3.17;0.90;;;;;;;20.73;47.85;99478.03;4974399;28;20217;-50
2022/05/26 10:10:23;;;;;;;2.47;1.00;;;;;;;20.36;48.41;99475.59;4952239;28;20716;-49
2022/05/26 10:13:01;;;;;;;4.00;0.87;;;;;;;19.75;50.99;99487.53;4982045;28;20225;-49
2022/05/26 10:15:41;;;;;;;2.30;0.83;;;;;;;19.41;51.13;99486.38;4965725;28;20228;-49
2022/05/26 10:18:29;;;;;;;1.80;0.80;;;;;;;18.88;52.74;99485.53;4977920;28;20229;-49
2022/05/26 10:21:05;;;;;;;4.90;0.90;;;;;;;19.02;53.21;99486.56;4964813;28;20213;-49
2022/05/26 10:24:00;;;;;;;3.40;1.17;;;;;;;18.79;53.79;99478.69;4977696;28;20202;-49
2022/05/26 10:26:33;;;;;;;4.70;0.90;;;;;;;18.87;53.21;99480.44;4962668;28;20223;-49
2022/05/26 10:29:21;;;;;;;2.83;0.70;;;;;;;18.86;54.50;99479.59;4978004;28;20247;-47
2022/05/26 10:32:02;;;;;;;3.83;1.17;;;;;;;18.47;54.33;99483.38;4978431;28;20205;-49
2022/05/26 10:34:48;;;;;;;2.47;1.00;;;;;;;18.67;54.67;99488.09;4968891;28;20200;-49
2022/05/26 10:37:27;;;;;;;3.87;0.90;;;;;;;18.55;55.32;99482.44;4970335;28;20199;-49
2022/05/26 10:40:16;;;;;;;2.77;0.70;;;;;;;18.77;55.15;99485.19;4984838;28;20256;-49
2022/05/26 10:42:51;;;;;;;4.37;1.00;;;;;;;18.89;54.10;99486.38;4978540;28;20199;-49
2022/05/26 10:45:24;;;;;;;5.33;0.90;;;;;;;18.78;55.04;99474.41;4958734;28;20228;-50
2022/05/26 10:47:59;;;;;;;6.13;2.33;;;;;;;19.08;55.12;99485.00;4982584;28;20207;-49
2022/05/26 10:50:31;;;;;;;2.30;0.97;;;;;;;19.42;51.96;99485.38;4968383;28;20189;-49
2022/05/26 10:53:06;;;;;;;3.60;1.37;;;;;;;19.22;52.81;99491.25;4974401;28;20190;-49
2022/05/26 10:55:41;;;;;;;3.83;1.10;;;;;;;19.18;53.19;99492.63;4974602;28;20249;-49
2022/05/26 10:58:17;;;;;;;8.40;1.20;;;;;;;19.32;52.95;99488.31;4974271;28;20698;-49
2022/05/26 11:00:47;;;;;;;2.47;0.90;;;;;;;19.54;51.89;99483.88;4957078;28;20857;-49
2022/05/26 11:03:22;;;;;;;2.40;1.00;;;;;;;19.87;51.40;99491.31;4974448;28;20188;-49
2022/05/26 11:05:53;;;;;;;5.90;0.83;;;;;;;20.07;50.76;99490.69;4973970;28;20226;-49
2022/05/26 11:08:33;;;;;;;2.53;0.90;;;;;;;20.87;49.66;99493.03;4973646;28;20573;-49
2022/05/26 11:11:04;;;;;;;3.33;0.90;;;;;;;21.16;48.98;99483.16;4956926;28;20325;-49
2022/05/26 11:13:42;;;;;;;1.97;1.00;;;;;;;21.99;46.21;99486.59;4974371;28;20192;-49
2022/05/26 11:19:12;;;;;;;2.63;1.20;;;;;;;21.67;46.24;99491.69;4955186;28;20289;-49
2022/05/26 11:21:39;;;;;;;5.93;1.20;;;;;;;21.35;48.35;99486.09;4975065;28;20191;-49
2022/05/26 11:24:09;;;;;;;2.67;0.90;;;;;;;21.23;48.27;99486.66;4974074;28;20206;-49
2022/05/26 11:26:43;;;;;;;3.30;0.90;;;;;;;20.90;49.11;99491.84;4974200;28;20215;-49
2022/05/26 11:29:18;;;;;;;4.37;1.37;;;;;;;21.60;47.70;99490.84;4974178;28;20202;-49
2022/05/26 11:37:35;;;;;;;4.97;1.30;;;;;;;21.79;46.49;99489.25;4974841;28;20221;-51
2022/05/26 11:40:06;;;;;;;2.73;0.83;;;;;;;21.64;47.85;99481.47;4972447;28;20649;-49
2022/05/26 11:42:35;;;;;;;3.87;1.20;;;;;;;22.04;45.73;99484.13;4973986;28;20194;-50
2022/05/26 11:45:29;;;;;;;3.63;1.10;;;;;;;21.80;46.29;99477.59;4973997;28;20214;-48
2022/05/26 11:48:44;;;;;;;2.57;0.80;;;;;;;21.93;48.32;99482.91;4961700;28;20217;-47
2022/05/26 11:51:40;;;;;;;3.80;1.10;;;;;;;21.95;47.12;99478.22;4974877;28;20191;-50
2022/05/26 11:54:09;;;;;;;3.17;0.90;;;;;;;22.02;47.55;99482.72;4974125;28;20504;-50
2022/05/26 11:56:46;;;;;;;2.67;1.13;;;;;;;21.95;46.22;99480.88;4973749;28;20191;-50
2022/05/26 11:59:44;;;;;;;5.47;1.90;;;;;;;22.23;46.81;99476.34;4973560;28;20221;-49
2022/05/26 12:02:39;;;;;;;3.40;1.10;;;;;;;22.45;45.27;99476.16;4972804;28;20217;-52
2022/05/26 12:05:48;;;;;;;2.73;0.87;;;;;;;22.74;45.01;99477.50;4973144;28;20323;-51
2022/05/26 12:08:38;;;;;;;4.17;0.83;;;;;;;22.72;44.02;99484.88;4964927;28;20221;-50
2022/05/26 12:11:09;;;;;;;5.57;1.20;;;;;;;21.50;46.93;99488.56;4970129;28;20232;-51
2022/05/26 12:13:39;;;;;;;3.20;1.00;;;;;;;21.03;48.41;99481.28;4973219;28;20215;-49
2022/05/26 12:16:11;;;;;;;2.80;1.00;;;;;;;20.53;48.84;99477.94;4968457;28;20416;-50
2022/05/26 12:18:43;;;;;;;2.60;1.00;;;;;;;20.07;50.73;99474.78;4981048;28;20292;-51
2022/05/26 12:21:13;;;;;;;3.37;1.00;;;;;;;19.58;51.65;99471.88;4976379;28;20224;-49
2022/05/26 12:23:42;;;;;;;5.20;1.10;;;;;;;19.46;52.80;99474.22;4986065;28;20702;-52
2022/05/26 12:26:49;;;;;;;3.03;0.90;;;;;;;19.26;53.46;99478.47;4976583;28;20661;-50
2022/05/26 12:29:59;;;;;;;5.23;1.10;;;;;;;18.89;54.44;99475.78;4984338;28;20207;-50
2022/05/26 12:32:28;;;;;;;3.73;1.00;;;;;;;18.89;55.37;99475.78;4991795;28;20212;-51
2022/05/26 12:35:07;;;;;;;5.47;1.47;;;;;;;18.95;55.30;99483.00;4975824;28;20217;-49
2022/05/26 12:37:47;;;;;;;1.93;1.13;;;;;;;18.99;56.20;99479.00;4971164;28;20227;-50
2022/05/26 12:40:44;;;;;;;3.47;1.10;;;;;;;19.01;55.63;99474.34;4960868;28;20727;-50